sensor_id;sensor_type;location;lat;lon;timestamp;pressure;altitude;pressure_sealevel;temperature
67509;BMP280;54354;44.724;11.284;2022-12-31T00:01:16;102572.03;;;17.19
67509;BMP280;54354;44.724;11.284;2022-12-31T00:03:43;102568.97;;;17.20
67509;BMP280;54354;44.724;11.284;2022-12-31T00:06:21;102572.41;;;17.21
67509;BMP280;54354;44.724;11.284;2022-12-31T00:08:48;102584.91;;;17.27
67509;BMP280;54354;44.724;11.284;2022-12-31T00:11:13;102584.50;;;17.29
67509;BMP280;54354;44.724;11.284;2022-12-31T00:13:39;102588.31;;;17.31
67509;BMP280;54354;44.724;11.284;2022-12-31T00:16:10;102590.63;;;17.29
67509;BMP280;54354;44.724;11.284;2022-12-31T00:18:36;102587.16;;;17.33
67509;BMP280;54354;44.724;11.284;2022-12-31T00:21:06;102587.59;;;17.27
67509;BMP280;54354;44.724;11.284;2022-12-31T00:23:32;102589.06;;;17.32
67509;BMP280;54354;44.724;11.284;2022-12-31T00:26:18;102582.13;;;17.35
67509;BMP280;54354;44.724;11.284;2022-12-31T00:28:45;102584.03;;;17.34
67509;BMP280;54354;44.724;11.284;2022-12-31T00:31:15;102591.78;;;17.28
67509;BMP280;54354;44.724;11.284;2022-12-31T00:33:42;102590.69;;;17.26
67509;BMP280;54354;44.724;11.284;2022-12-31T00:36:52;102577.81;;;17.17
67509;BMP280;54354;44.724;11.284;2022-12-31T00:39:00;102571.28;;;17.18
67509;BMP280;54354;44.724;11.284;2022-12-31T00:41:26;102578.63;;;17.14
67509;BMP280;54354;44.724;11.284;2022-12-31T00:43:53;102578.69;;;17.11
67509;BMP280;54354;44.724;11.284;2022-12-31T00:46:19;102578.69;;;17.11
67509;BMP280;54354;44.724;11.284;2022-12-31T00:48:46;102578.69;;;17.11
67509;BMP280;54354;44.724;11.284;2022-12-31T00:51:13;102589.03;;;17.09
67509;BMP280;54354;44.724;11.284;2022-12-31T00:53:39;102582.50;;;17.10
67509;BMP280;54354;44.724;11.284;2022-12-31T00:56:34;102574.41;;;17.17
67509;BMP280;54354;44.724;11.284;2022-12-31T00:59:00;102579.03;;;17.13
67509;BMP280;54354;44.724;11.284;2022-12-31T01:01:27;102590.16;;;17.11
67509;BMP280;54354;44.724;11.284;2022-12-31T01:03:55;102595.19;;;17.06
67509;BMP280;54354;44.724;11.284;2022-12-31T01:06:22;102597.00;;;17.12
67509;BMP280;54354;44.724;11.284;2022-12-31T01:08:48;102589.44;;;17.07
67509;BMP280;54354;44.724;11.284;2022-12-31T01:11:14;102594.44;;;17.05
67509;BMP280;54354;44.724;11.284;2022-12-31T01:14:03;102597.94;;;16.98
67509;BMP280;54354;44.724;11.284;2022-12-31T01:16:43;102594.50;;;16.98
67509;BMP280;54354;44.724;11.284;2022-12-31T01:19:15;102600.25;;;17.00
67509;BMP280;54354;44.724;11.284;2022-12-31T01:21:42;102603.22;;;17.06
67509;BMP280;54354;44.724;11.284;2022-12-31T01:24:09;102608.97;;;17.04
67509;BMP280;54354;44.724;11.284;2022-12-31T01:26:35;102619.28;;;17.06
67509;BMP280;54354;44.724;11.284;2022-12-31T01:29:02;102618.88;;;17.07
67509;BMP280;54354;44.724;11.284;2022-12-31T01:31:28;102623.09;;;17.08
67509;BMP280;54354;44.724;11.284;2022-12-31T01:33:54;102630.69;;;17.10
67509;BMP280;54354;44.724;11.284;2022-12-31T01:36:22;102625.00;;;17.08
67509;BMP280;54354;44.724;11.284;2022-12-31T01:38:48;102630.31;;;17.11
67509;BMP280;54354;44.724;11.284;2022-12-31T01:41:17;102633.03;;;17.08
67509;BMP280;54354;44.724;11.284;2022-12-31T01:43:57;102625.78;;;17.08
67509;BMP280;54354;44.724;11.284;2022-12-31T01:48:55;102629.84;;;17.16
67509;BMP280;54354;44.724;11.284;2022-12-31T01:51:22;102627.63;;;17.11
67509;BMP280;54354;44.724;11.284;2022-12-31T01:53:48;102626.56;;;17.05
67509;BMP280;54354;44.724;11.284;2022-12-31T01:56:14;102628.53;;;17.01
67509;BMP280;54354;44.724;11.284;2022-12-31T01:58:43;102633.63;;;16.92
67509;BMP280;54354;44.724;11.284;2022-12-31T02:01:13;102645.88;;;16.89
67509;BMP280;54354;44.724;11.284;2022-12-31T02:03:40;102653.22;;;16.85
67509;BMP280;54354;44.724;11.284;2022-12-31T02:06:21;102657.53;;;16.75
67509;BMP280;54354;44.724;11.284;2022-12-31T02:08:48;102662.06;;;16.79
67509;BMP280;54354;44.724;11.284;2022-12-31T02:11:29;102678.94;;;16.75
67509;BMP280;54354;44.724;11.284;2022-12-31T02:14:03;102669.44;;;16.71
67509;BMP280;54354;44.724;11.284;2022-12-31T02:30:41;102675.19;;;16.69
67509;BMP280;54354;44.724;11.284;2022-12-31T02:33:36;102665.88;;;16.77
67509;BMP280;54354;44.724;11.284;2022-12-31T02:36:11;102667.94;;;16.70
67509;BMP280;54354;44.724;11.284;2022-12-31T02:38:41;102673.28;;;16.70
67509;BMP280;54354;44.724;11.284;2022-12-31T02:41:13;102674.38;;;16.72
67509;BMP280;54354;44.724;11.284;2022-12-31T02:43:57;102675.09;;;16.76
67509;BMP280;54354;44.724;11.284;2022-12-31T02:46:37;102667.09;;;16.76
67509;BMP280;54354;44.724;11.284;2022-12-31T02:49:12;102661.34;;;16.74
67509;BMP280;54354;44.724;11.284;2022-12-31T02:51:44;102675.06;;;16.80
67509;BMP280;54354;44.724;11.284;2022-12-31T03:02:32;102664.75;;;16.79
67509;BMP280;54354;44.724;11.284;2022-12-31T03:05:00;102669.78;;;16.73
67509;BMP280;54354;44.724;11.284;2022-12-31T03:07:28;102660.59;;;16.74
67509;BMP280;54354;44.724;11.284;2022-12-31T03:09:55;102657.22;;;16.70
67509;BMP280;54354;44.724;11.284;2022-12-31T03:12:23;102660.28;;;16.68
67509;BMP280;54354;44.724;11.284;2022-12-31T03:15:09;102664.03;;;16.74
67509;BMP280;54354;44.724;11.284;2022-12-31T03:18:03;102659.41;;;16.79
67509;BMP280;54354;44.724;11.284;2022-12-31T03:20:33;102669.75;;;16.76
67509;BMP280;54354;44.724;11.284;2022-12-31T03:23:24;102652.25;;;16.68
67509;BMP280;54354;44.724;11.284;2022-12-31T03:25:50;102658.38;;;16.69
67509;BMP280;54354;44.724;11.284;2022-12-31T03:28:19;102666.44;;;16.65
67509;BMP280;54354;44.724;11.284;2022-12-31T03:30:48;102672.91;;;16.68
67509;BMP280;54354;44.724;11.284;2022-12-31T03:33:15;102672.06;;;16.74
67509;BMP280;54354;44.724;11.284;2022-12-31T03:35:42;102672.88;;;16.71
67509;BMP280;54354;44.724;11.284;2022-12-31T03:38:08;102673.22;;;16.73
67509;BMP280;54354;44.724;11.284;2022-12-31T03:40:38;102670.97;;;16.68
67509;BMP280;54354;44.724;11.284;2022-12-31T03:43:04;102673.22;;;16.73
67509;BMP280;54354;44.724;11.284;2022-12-31T03:45:29;102672.06;;;16.74
67509;BMP280;54354;44.724;11.284;2022-12-31T03:47:55;102678.22;;;16.71
67509;BMP280;54354;44.724;11.284;2022-12-31T03:50:20;102675.56;;;16.68
67509;BMP280;54354;44.724;11.284;2022-12-31T03:52:46;102681.34;;;16.66
67509;BMP280;54354;44.724;11.284;2022-12-31T03:55:12;102673.66;;;16.68
67509;BMP280;54354;44.724;11.284;2022-12-31T03:57:37;102676.00;;;16.66
67509;BMP280;54354;44.724;11.284;2022-12-31T04:00:06;102673.34;;;16.63
67509;BMP280;54354;44.724;11.284;2022-12-31T04:02:32;102678.69;;;16.66
67509;BMP280;54354;44.724;11.284;2022-12-31T04:04:58;102681.31;;;16.70
67509;BMP280;54354;44.724;11.284;2022-12-31T04:07:23;102675.91;;;16.73
67509;BMP280;54354;44.724;11.284;2022-12-31T04:09:49;102688.50;;;16.76
67509;BMP280;54354;44.724;11.284;2022-12-31T04:12:15;102684.69;;;16.74
67509;BMP280;54354;44.724;11.284;2022-12-31T04:14:41;102695.75;;;16.76
67509;BMP280;54354;44.724;11.284;2022-12-31T04:17:06;102685.44;;;16.74
67509;BMP280;54354;44.724;11.284;2022-12-31T04:19:32;102693.44;;;16.78
67509;BMP280;54354;44.724;11.284;2022-12-31T04:21:57;102676.97;;;16.80
67509;BMP280;54354;44.724;11.284;2022-12-31T04:24:23;102670.09;;;16.79
67509;BMP280;54354;44.724;11.284;2022-12-31T04:26:48;102673.47;;;16.83
67509;BMP280;54354;44.724;11.284;2022-12-31T04:29:14;102671.56;;;16.83
67509;BMP280;54354;44.724;11.284;2022-12-31T04:31:39;102671.94;;;16.85
67509;BMP280;54354;44.724;11.284;2022-12-31T04:34:05;102677.66;;;16.84
67509;BMP280;54354;44.724;11.284;2022-12-31T04:36:30;102670.06;;;16.82
67509;BMP280;54354;44.724;11.284;2022-12-31T04:38:56;102671.19;;;16.85
67509;BMP280;54354;44.724;11.284;2022-12-31T04:41:21;102678.84;;;16.83
67509;BMP280;54354;44.724;11.284;2022-12-31T04:43:53;102684.63;;;16.77
67509;BMP280;54354;44.724;11.284;2022-12-31T04:46:22;102696.53;;;16.76
67509;BMP280;54354;44.724;11.284;2022-12-31T04:48:48;102696.03;;;16.85
67509;BMP280;54354;44.724;11.284;2022-12-31T04:51:14;102699.53;;;16.82
67509;BMP280;54354;44.724;11.284;2022-12-31T04:53:40;102696.47;;;16.80
67509;BMP280;54354;44.724;11.284;2022-12-31T04:56:07;102692.34;;;16.75
67509;BMP280;54354;44.724;11.284;2022-12-31T04:58:34;102695.38;;;16.74
67509;BMP280;54354;44.724;11.284;2022-12-31T05:00:59;102702.28;;;16.75
67509;BMP280;54354;44.724;11.284;2022-12-31T05:03:25;102702.28;;;16.75
67509;BMP280;54354;44.724;11.284;2022-12-31T05:05:52;102705.31;;;16.73
67509;BMP280;54354;44.724;11.284;2022-12-31T05:08:18;102720.63;;;16.73
67509;BMP280;54354;44.724;11.284;2022-12-31T05:10:48;102716.47;;;16.68
67509;BMP280;54354;44.724;11.284;2022-12-31T05:13:14;102723.69;;;16.75
67509;BMP280;54354;44.724;11.284;2022-12-31T05:15:40;102725.22;;;16.72
67509;BMP280;54354;44.724;11.284;2022-12-31T05:18:06;102738.25;;;16.70
67509;BMP280;54354;44.724;11.284;2022-12-31T05:20:32;102753.50;;;16.73
67509;BMP280;54354;44.724;11.284;2022-12-31T05:22:58;102754.63;;;16.76
67509;BMP280;54354;44.724;11.284;2022-12-31T05:25:24;102757.31;;;16.76
67509;BMP280;54354;44.724;11.284;2022-12-31T05:27:50;102778.31;;;16.74
67509;BMP280;54354;44.724;11.284;2022-12-31T05:30:15;102777.56;;;16.73
67509;BMP280;54354;44.724;11.284;2022-12-31T05:32:43;102776.06;;;16.72
67509;BMP280;54354;44.724;11.284;2022-12-31T05:35:09;102779.91;;;16.71
67509;BMP280;54354;44.724;11.284;2022-12-31T05:37:35;102784.09;;;16.72
67509;BMP280;54354;44.724;11.284;2022-12-31T05:40:01;102782.94;;;16.73
67509;BMP280;54354;44.724;11.284;2022-12-31T05:42:27;102786.34;;;16.74
67509;BMP280;54354;44.724;11.284;2022-12-31T05:44:53;102787.13;;;16.74
67509;BMP280;54354;44.724;11.284;2022-12-31T05:47:18;102786.31;;;16.77
67509;BMP280;54354;44.724;11.284;2022-12-31T05:49:44;102799.69;;;16.77
67509;BMP280;54354;44.724;11.284;2022-12-31T05:52:10;102798.16;;;16.80
67509;BMP280;54354;44.724;11.284;2022-12-31T05:54:35;102803.50;;;16.80
67509;BMP280;54354;44.724;11.284;2022-12-31T05:57:02;102810.03;;;16.79
67509;BMP280;54354;44.724;11.284;2022-12-31T05:59:27;102818.03;;;16.79
67509;BMP280;54354;44.724;11.284;2022-12-31T06:01:53;102823.34;;;16.83
67509;BMP280;54354;44.724;11.284;2022-12-31T06:04:19;102824.53;;;16.82
67509;BMP280;54354;44.724;11.284;2022-12-31T06:06:44;102830.22;;;16.84
67509;BMP280;54354;44.724;11.284;2022-12-31T06:09:10;102833.69;;;16.84
67509;BMP280;54354;44.724;11.284;2022-12-31T06:11:35;102829.84;;;16.85
67509;BMP280;54354;44.724;11.284;2022-12-31T06:14:01;102824.47;;;16.85
67509;BMP280;54354;44.724;11.284;2022-12-31T06:16:28;102826.47;;;16.81
67509;BMP280;54354;44.724;11.284;2022-12-31T06:18:53;102827.97;;;16.82
67509;BMP280;54354;44.724;11.284;2022-12-31T06:21:20;102818.84;;;16.76
67509;BMP280;54354;44.724;11.284;2022-12-31T06:23:47;102828.03;;;16.75
67509;BMP280;54354;44.724;11.284;2022-12-31T06:26:13;102830.72;;;16.75
67509;BMP280;54354;44.724;11.284;2022-12-31T06:28:39;102839.16;;;16.70
67509;BMP280;54354;44.724;11.284;2022-12-31T06:31:07;102831.56;;;16.65
67509;BMP280;54354;44.724;11.284;2022-12-31T06:33:33;102845.34;;;16.63
67509;BMP280;54354;44.724;11.284;2022-12-31T06:36:01;102843.06;;;16.58
67509;BMP280;54354;44.724;11.284;2022-12-31T06:38:28;102842.31;;;16.61
67509;BMP280;54354;44.724;11.284;2022-12-31T06:40:54;102852.97;;;16.65
67509;BMP280;54354;44.724;11.284;2022-12-31T06:43:21;102850.63;;;16.70
67509;BMP280;54354;44.724;11.284;2022-12-31T06:45:46;102857.84;;;16.73
67509;BMP280;54354;44.724;11.284;2022-12-31T06:48:12;102868.19;;;16.75
67509;BMP280;54354;44.724;11.284;2022-12-31T06:50:38;102873.88;;;16.77
67509;BMP280;54354;44.724;11.284;2022-12-31T06:53:04;102871.56;;;16.79
67509;BMP280;54354;44.724;11.284;2022-12-31T06:55:30;102875.75;;;16.80
67509;BMP280;54354;44.724;11.284;2022-12-31T06:57:56;102871.53;;;16.83
67509;BMP280;54354;44.724;11.284;2022-12-31T07:00:22;102874.94;;;16.83
67509;BMP280;54354;44.724;11.284;2022-12-31T07:05:41;102884.19;;;16.79
67509;BMP280;54354;44.724;11.284;2022-12-31T07:08:17;102896.41;;;16.80
67509;BMP280;54354;44.724;11.284;2022-12-31T07:11:10;102889.53;;;16.79
67509;BMP280;54354;44.724;11.284;2022-12-31T07:13:58;102889.25;;;16.69
67509;BMP280;54354;44.724;11.284;2022-12-31T07:16:33;102885.81;;;16.65
67509;BMP280;54354;44.724;11.284;2022-12-31T07:21:38;102898.44;;;16.65
67509;BMP280;54354;44.724;11.284;2022-12-31T07:24:05;102902.28;;;16.64
67509;BMP280;54354;44.724;11.284;2022-12-31T07:31:57;102910.25;;;16.67
67509;BMP280;54354;44.724;11.284;2022-12-31T07:40:47;102918.50;;;16.91
67509;BMP280;54354;44.724;11.284;2022-12-31T07:43:46;102915.81;;;16.91
67509;BMP280;54354;44.724;11.284;2022-12-31T07:49:02;102918.44;;;16.94
67509;BMP280;54354;44.724;11.284;2022-12-31T07:51:28;102927.66;;;16.93
67509;BMP280;54354;44.724;11.284;2022-12-31T07:53:54;102923.03;;;16.97
67509;BMP280;54354;44.724;11.284;2022-12-31T07:56:21;102927.53;;;17.04
67509;BMP280;54354;44.724;11.284;2022-12-31T08:01:40;102921.25;;;17.21
67509;BMP280;54354;44.724;11.284;2022-12-31T08:04:16;102925.06;;;17.24
67509;BMP280;54354;44.724;11.284;2022-12-31T08:06:51;102933.81;;;17.31
67509;BMP280;54354;44.724;11.284;2022-12-31T08:09:36;102938.66;;;17.40
67509;BMP280;54354;44.724;11.284;2022-12-31T08:12:03;102955.06;;;17.46
67509;BMP280;54354;44.724;11.284;2022-12-31T08:14:29;102956.56;;;17.50
67509;BMP280;54354;44.724;11.284;2022-12-31T08:16:56;102959.91;;;17.58
67509;BMP280;54354;44.724;11.284;2022-12-31T08:19:26;102960.97;;;17.64
67509;BMP280;54354;44.724;11.284;2022-12-31T08:22:06;102973.09;;;17.76
67509;BMP280;54354;44.724;11.284;2022-12-31T08:27:32;102966.19;;;18.09
67509;BMP280;54354;44.724;11.284;2022-12-31T08:30:14;102977.28;;;18.11
67509;BMP280;54354;44.724;11.284;2022-12-31T08:35:46;102981.63;;;18.28
67509;BMP280;54354;44.724;11.284;2022-12-31T08:44:05;102981.75;;;18.48
67509;BMP280;54354;44.724;11.284;2022-12-31T08:46:39;102974.13;;;18.43
67509;BMP280;54354;44.724;11.284;2022-12-31T08:49:09;102977.94;;;18.46
67509;BMP280;54354;44.724;11.284;2022-12-31T08:51:35;102983.72;;;18.44
67509;BMP280;54354;44.724;11.284;2022-12-31T08:54:01;102987.16;;;18.44
67509;BMP280;54354;44.724;11.284;2022-12-31T08:56:29;102994.03;;;18.46
67509;BMP280;54354;44.724;11.284;2022-12-31T09:01:34;102999.50;;;18.38
67509;BMP280;54354;44.724;11.284;2022-12-31T09:06:37;103004.81;;;18.42
67509;BMP280;54354;44.724;11.284;2022-12-31T09:09:14;103006.34;;;18.43
67509;BMP280;54354;44.724;11.284;2022-12-31T09:12:11;103003.66;;;18.43
67509;BMP280;54354;44.724;11.284;2022-12-31T09:14:42;103010.53;;;18.44
67509;BMP280;54354;44.724;11.284;2022-12-31T09:17:46;103015.06;;;18.51
67509;BMP280;54354;44.724;11.284;2022-12-31T09:20:32;103014.69;;;18.49
67509;BMP280;54354;44.724;11.284;2022-12-31T09:22:59;103012.09;;;18.45
67509;BMP280;54354;44.724;11.284;2022-12-31T09:25:26;103019.31;;;18.48
67509;BMP280;54354;44.724;11.284;2022-12-31T09:33:34;103011.94;;;18.52
67509;BMP280;54354;44.724;11.284;2022-12-31T09:36:05;103016.66;;;18.44
67509;BMP280;54354;44.724;11.284;2022-12-31T09:38:51;103012.38;;;18.51
67509;BMP280;54354;44.724;11.284;2022-12-31T09:44:54;103010.44;;;18.51
67509;BMP280;54354;44.724;11.284;2022-12-31T09:53:40;103015.28;;;18.60
67509;BMP280;54354;44.724;11.284;2022-12-31T09:56:20;103013.03;;;18.58
67509;BMP280;54354;44.724;11.284;2022-12-31T10:01:57;103005.72;;;18.59
67509;BMP280;54354;44.724;11.284;2022-12-31T10:10:00;103002.22;;;18.62
67509;BMP280;54354;44.724;11.284;2022-12-31T10:15:57;103000.78;;;18.57
67509;BMP280;54354;44.724;11.284;2022-12-31T10:18:46;103003.31;;;18.64
67509;BMP280;54354;44.724;11.284;2022-12-31T10:21:41;103002.88;;;18.69
67509;BMP280;54354;44.724;11.284;2022-12-31T10:30:14;103005.63;;;18.66
67509;BMP280;54354;44.724;11.284;2022-12-31T10:33:14;103000.59;;;18.68
67509;BMP280;54354;44.724;11.284;2022-12-31T10:52:21;102991.56;;;18.82
67509;BMP280;54354;44.724;11.284;2022-12-31T11:00:21;102984.63;;;18.84
67509;BMP280;54354;44.724;11.284;2022-12-31T11:06:07;102954.63;;;18.89
67509;BMP280;54354;44.724;11.284;2022-12-31T11:14:56;102957.41;;;19.06
67509;BMP280;54354;44.724;11.284;2022-12-31T11:23:29;102960.09;;;19.06
67509;BMP280;54354;44.724;11.284;2022-12-31T11:28:53;102952.38;;;19.08
67509;BMP280;54354;44.724;11.284;2022-12-31T11:31:36;102958.44;;;19.12
67509;BMP280;54354;44.724;11.284;2022-12-31T11:48:09;102956.91;;;19.31
67509;BMP280;54354;44.724;11.284;2022-12-31T11:50:44;102951.16;;;19.32
67509;BMP280;54354;44.724;11.284;2022-12-31T11:56:16;102960.31;;;19.35
67509;BMP280;54354;44.724;11.284;2022-12-31T11:58:48;102957.72;;;19.31
67509;BMP280;54354;44.724;11.284;2022-12-31T12:01:21;102957.28;;;19.33
67509;BMP280;54354;44.724;11.284;2022-12-31T12:03:48;102958.75;;;19.37
67509;BMP280;54354;44.724;11.284;2022-12-31T12:06:23;102956.78;;;19.38
67509;BMP280;54354;44.724;11.284;2022-12-31T12:08:49;102959.44;;;19.41
67509;BMP280;54354;44.724;11.284;2022-12-31T12:11:20;102950.59;;;19.41
67509;BMP280;54354;44.724;11.284;2022-12-31T12:13:49;102946.31;;;19.43
67509;BMP280;54354;44.724;11.284;2022-12-31T12:16:15;102950.88;;;19.46
67509;BMP280;54354;44.724;11.284;2022-12-31T12:21:17;102952.38;;;19.47
67509;BMP280;54354;44.724;11.284;2022-12-31T12:24:02;102942.66;;;19.53
67509;BMP280;54354;44.724;11.284;2022-12-31T12:35:30;102931.53;;;19.55
67509;BMP280;54354;44.724;11.284;2022-12-31T12:38:02;102925.09;;;19.49
67509;BMP280;54354;44.724;11.284;2022-12-31T12:40:28;102936.19;;;19.51
67509;BMP280;54354;44.724;11.284;2022-12-31T12:42:53;102934.59;;;19.53
67509;BMP280;54354;44.724;11.284;2022-12-31T12:45:25;102924.59;;;19.54
67509;BMP280;54354;44.724;11.284;2022-12-31T12:47:59;102928.84;;;19.55
67509;BMP280;54354;44.724;11.284;2022-12-31T12:50:35;102921.16;;;19.53
67509;BMP280;54354;44.724;11.284;2022-12-31T12:58:41;102928.03;;;19.54
67509;BMP280;54354;44.724;11.284;2022-12-31T13:07:01;102929.06;;;19.61
67509;BMP280;54354;44.724;11.284;2022-12-31T13:14:34;102929.06;;;19.61
67509;BMP280;54354;44.724;11.284;2022-12-31T13:17:04;102923.69;;;19.61
67509;BMP280;54354;44.724;11.284;2022-12-31T13:20:02;102922.91;;;19.60
67509;BMP280;54354;44.724;11.284;2022-12-31T13:28:03;102931.72;;;19.64
67509;BMP280;54354;44.724;11.284;2022-12-31T13:30:39;102942.00;;;19.66
67509;BMP280;54354;44.724;11.284;2022-12-31T13:33:23;102935.47;;;19.67
67509;BMP280;54354;44.724;11.284;2022-12-31T13:38:46;102945.41;;;19.70
67509;BMP280;54354;44.724;11.284;2022-12-31T13:44:13;102929.94;;;19.74
67509;BMP280;54354;44.724;11.284;2022-12-31T13:49:43;102927.19;;;19.77
67509;BMP280;54354;44.724;11.284;2022-12-31T13:52:49;102925.31;;;19.74
67509;BMP280;54354;44.724;11.284;2022-12-31T13:55:37;102924.94;;;19.76
67509;BMP280;54354;44.724;11.284;2022-12-31T14:01:27;102930.22;;;19.79
67509;BMP280;54354;44.724;11.284;2022-12-31T14:03:57;102937.34;;;19.70
67509;BMP280;54354;44.724;11.284;2022-12-31T14:06:55;102940.69;;;19.74
67509;BMP280;54354;44.724;11.284;2022-12-31T14:09:26;102937.91;;;19.61
67509;BMP280;54354;44.724;11.284;2022-12-31T14:12:43;102946.03;;;19.57
67509;BMP280;54354;44.724;11.284;2022-12-31T14:14:58;102944.50;;;19.56
67509;BMP280;54354;44.724;11.284;2022-12-31T14:18:01;102947.19;;;19.56
67509;BMP280;54354;44.724;11.284;2022-12-31T14:20:46;102941.06;;;19.56
67509;BMP280;54354;44.724;11.284;2022-12-31T14:23:49;102941.50;;;19.54
67509;BMP280;54354;44.724;11.284;2022-12-31T14:26:27;102947.09;;;19.44
67509;BMP280;54354;44.724;11.284;2022-12-31T14:29:05;102952.47;;;19.44
67509;BMP280;54354;44.724;11.284;2022-12-31T14:34:46;102955.53;;;19.42
67509;BMP280;54354;44.724;11.284;2022-12-31T14:43:22;102957.13;;;19.40
67509;BMP280;54354;44.724;11.284;2022-12-31T14:48:54;102958.75;;;19.37
67509;BMP280;54354;44.724;11.284;2022-12-31T14:51:27;102964.97;;;19.31
67509;BMP280;54354;44.724;11.284;2022-12-31T14:53:53;102970.34;;;19.31
67509;BMP280;54354;44.724;11.284;2022-12-31T14:56:42;102967.66;;;19.31
67509;BMP280;54354;44.724;11.284;2022-12-31T14:59:29;102967.88;;;19.40
67509;BMP280;54354;44.724;11.284;2022-12-31T15:01:56;102969.88;;;19.36
67509;BMP280;54354;44.724;11.284;2022-12-31T15:04:30;102977.59;;;19.34
67509;BMP280;54354;44.724;11.284;2022-12-31T15:07:25;102977.94;;;19.36
67509;BMP280;54354;44.724;11.284;2022-12-31T15:13:06;102996.69;;;19.39
67509;BMP280;54354;44.724;11.284;2022-12-31T15:18:58;102997.19;;;19.34
67509;BMP280;54354;44.724;11.284;2022-12-31T15:23:57;103002.56;;;19.34
67509;BMP280;54354;44.724;11.284;2022-12-31T15:26:25;102991.50;;;19.28
67509;BMP280;54354;44.724;11.284;2022-12-31T15:29:00;103003.09;;;19.25
67509;BMP280;54354;44.724;11.284;2022-12-31T15:31:27;103004.59;;;19.26
67509;BMP280;54354;44.724;11.284;2022-12-31T15:33:57;103018.03;;;19.26
67509;BMP280;54354;44.724;11.284;2022-12-31T15:36:31;103003.50;;;19.24
67509;BMP280;54354;44.724;11.284;2022-12-31T15:41:39;103018.59;;;19.18
67509;BMP280;54354;44.724;11.284;2022-12-31T15:47:08;103015.28;;;19.10
67509;BMP280;54354;44.724;11.284;2022-12-31T15:49:38;103020.28;;;19.08
67509;BMP280;54354;44.724;11.284;2022-12-31T15:52:06;103016.88;;;19.47
67509;BMP280;54354;44.724;11.284;2022-12-31T15:54:42;103028.19;;;19.15
67509;BMP280;54354;44.724;11.284;2022-12-31T15:57:39;103025.59;;;19.12
67509;BMP280;54354;44.724;11.284;2022-12-31T16:00:20;103028.41;;;19.05
67509;BMP280;54354;44.724;11.284;2022-12-31T16:02:50;103028.50;;;18.97
67509;BMP280;54354;44.724;11.284;2022-12-31T16:05:24;103033.47;;;18.99
67509;BMP280;54354;44.724;11.284;2022-12-31T16:07:52;103026.63;;;18.94
67509;BMP280;54354;44.724;11.284;2022-12-31T16:10:23;103036.31;;;18.88
67509;BMP280;54354;44.724;11.284;2022-12-31T16:12:49;103045.56;;;18.87
67509;BMP280;54354;44.724;11.284;2022-12-31T16:15:22;103047.25;;;18.78
67509;BMP280;54354;44.724;11.284;2022-12-31T16:18:01;103044.97;;;18.76
67509;BMP280;54354;44.724;11.284;2022-12-31T16:20:29;103052.63;;;18.74
67509;BMP280;54354;44.724;11.284;2022-12-31T16:22:56;103048.50;;;18.69
67509;BMP280;54354;44.724;11.284;2022-12-31T16:25:23;103048.16;;;18.67
67509;BMP280;54354;44.724;11.284;2022-12-31T16:27:50;103050.16;;;18.63
67509;BMP280;54354;44.724;11.284;2022-12-31T16:30:27;103058.66;;;18.58
67509;BMP280;54354;44.724;11.284;2022-12-31T16:33:00;103054.06;;;18.55
67509;BMP280;54354;44.724;11.284;2022-12-31T16:35:27;103065.56;;;18.56
67509;BMP280;54354;44.724;11.284;2022-12-31T16:38:10;103055.28;;;18.54
67509;BMP280;54354;44.724;11.284;2022-12-31T16:40:37;103070.63;;;18.54
67509;BMP280;54354;44.724;11.284;2022-12-31T16:43:03;103074.09;;;18.51
67509;BMP280;54354;44.724;11.284;2022-12-31T16:47:57;103074.53;;;18.46
67509;BMP280;54354;44.724;11.284;2022-12-31T16:50:25;103076.44;;;18.49
67509;BMP280;54354;44.724;11.284;2022-12-31T16:52:57;103070.34;;;18.41
67509;BMP280;54354;44.724;11.284;2022-12-31T16:55:26;103076.94;;;18.40
67509;BMP280;54354;44.724;11.284;2022-12-31T17:00:27;103089.63;;;18.36
67509;BMP280;54354;44.724;11.284;2022-12-31T17:03:04;103089.31;;;18.30
67509;BMP280;54354;44.724;11.284;2022-12-31T17:05:33;103095.00;;;18.36
67509;BMP280;54354;44.724;11.284;2022-12-31T17:11:02;103100.75;;;18.34
67509;BMP280;54354;44.724;11.284;2022-12-31T17:13:33;103101.97;;;18.30
67509;BMP280;54354;44.724;11.284;2022-12-31T17:15:59;103097.38;;;18.30
67509;BMP280;54354;44.724;11.284;2022-12-31T17:18:31;103106.16;;;18.31
67509;BMP280;54354;44.724;11.284;2022-12-31T17:21:06;103096.53;;;18.33
67509;BMP280;54354;44.724;11.284;2022-12-31T17:23:34;103098.41;;;18.36
67509;BMP280;54354;44.724;11.284;2022-12-31T17:26:13;103101.81;;;18.40
67509;BMP280;54354;44.724;11.284;2022-12-31T17:28:47;103104.50;;;18.40
67509;BMP280;54354;44.724;11.284;2022-12-31T17:31:30;103111.00;;;18.43
67509;BMP280;54354;44.724;11.284;2022-12-31T17:36:34;103104.44;;;18.44
67509;BMP280;54354;44.724;11.284;2022-12-31T17:39:16;103097.50;;;18.47
67509;BMP280;54354;44.724;11.284;2022-12-31T17:41:46;103096.09;;;18.38
67509;BMP280;54354;44.724;11.284;2022-12-31T17:44:19;103098.81;;;18.35
67509;BMP280;54354;44.724;11.284;2022-12-31T17:46:47;103097.31;;;18.34
67509;BMP280;54354;44.724;11.284;2022-12-31T17:49:13;103101.50;;;18.35
67509;BMP280;54354;44.724;11.284;2022-12-31T17:51:39;103098.47;;;18.33
67509;BMP280;54354;44.724;11.284;2022-12-31T17:54:12;103101.19;;;18.29
67509;BMP280;54354;44.724;11.284;2022-12-31T17:56:38;103100.00;;;18.34
67509;BMP280;54354;44.724;11.284;2022-12-31T17:59:04;103101.16;;;18.33
67509;BMP280;54354;44.724;11.284;2022-12-31T18:01:31;103105.72;;;18.32
67509;BMP280;54354;44.724;11.284;2022-12-31T18:03:57;103104.59;;;18.33
67509;BMP280;54354;44.724;11.284;2022-12-31T18:06:22;103101.16;;;18.33